createdAt,value
2018-04-14T00:02:00.419Z,34.00
2018-04-14T00:04:27.905Z,33.80
2018-04-14T00:06:55.401Z,33.80
2018-04-14T00:09:23.659Z,34.50
2018-04-14T00:11:51.144Z,33.80
2018-04-14T00:14:18.633Z,33.90
2018-04-14T00:16:46.131Z,33.90
2018-04-14T00:19:13.641Z,33.80
2018-04-14T00:21:41.137Z,33.70
2018-04-14T00:24:08.684Z,34.00
2018-04-14T00:26:36.184Z,33.70
2018-04-14T00:29:04.438Z,33.70
2018-04-14T00:31:31.885Z,33.70
2018-04-14T00:33:59.392Z,33.70
2018-04-14T00:36:26.888Z,33.70
2018-04-14T00:38:54.414Z,33.60
2018-04-14T00:41:21.912Z,33.50
2018-04-14T00:43:49.402Z,33.60
2018-04-14T00:46:16.893Z,33.60
2018-04-14T00:48:45.230Z,34.40
2018-04-14T00:51:12.752Z,33.70
2018-04-14T00:53:47.077Z,33.60
2018-04-14T00:56:14.580Z,33.50
2018-04-14T00:58:43.241Z,33.60
2018-04-14T01:01:10.734Z,33.40
2018-04-14T01:03:38.249Z,33.50
2018-04-14T01:06:05.762Z,33.50
2018-04-14T01:08:33.236Z,33.40
2018-04-14T01:11:00.753Z,33.40
2018-04-14T01:13:29.053Z,33.20
2018-04-14T01:15:56.545Z,33.20
2018-04-14T01:18:24.051Z,33.20
2018-04-14T01:20:52.306Z,32.90
2018-04-14T01:23:19.817Z,33.00
2018-04-14T01:25:47.351Z,33.10
2018-04-14T01:28:15.597Z,33.00
2018-04-14T01:30:43.094Z,33.10
2018-04-14T01:33:10.608Z,32.90
2018-04-14T01:35:38.104Z,32.90
2018-04-14T01:38:06.389Z,32.70
2018-04-14T01:40:33.881Z,32.80
2018-04-14T01:43:01.333Z,32.80
2018-04-14T01:45:28.841Z,32.80
2018-04-14T01:47:57.080Z,32.90
2018-04-14T01:50:24.594Z,32.90
2018-04-14T01:52:53.316Z,32.80
2018-04-14T01:55:20.877Z,32.90
2018-04-14T01:57:48.361Z,32.80
2018-04-14T02:00:15.868Z,32.80
2018-04-14T02:02:43.390Z,32.80
2018-04-14T02:05:11.636Z,32.70
2018-04-14T02:07:39.130Z,32.70
2018-04-14T02:10:07.413Z,32.60
2018-04-14T02:12:35.647Z,32.70
2018-04-14T02:15:03.217Z,32.50
2018-04-14T02:17:30.710Z,32.60
2018-04-14T02:19:58.228Z,32.80
2018-04-14T02:22:26.467Z,32.50
2018-04-14T02:24:53.936Z,32.50
2018-04-14T02:27:21.440Z,32.50
2018-04-14T02:29:48.907Z,32.40
2018-04-14T02:32:16.412Z,33.10
2018-04-14T02:34:43.892Z,32.50
2018-04-14T02:37:11.372Z,32.60
2018-04-14T02:39:39.656Z,32.30
2018-04-14T02:42:07.913Z,32.10
2018-04-14T02:44:35.406Z,32.10
2018-04-14T02:47:02.944Z,32.40
2018-04-14T02:49:31.210Z,32.20
2018-04-14T02:51:58.702Z,32.20
2018-04-14T02:54:26.191Z,32.20
2018-04-14T02:56:53.702Z,32.10
2018-04-14T02:59:21.942Z,31.90
2018-04-14T03:01:49.432Z,32.00
2018-04-14T03:04:17.710Z,32.10
2018-04-14T03:06:46.007Z,32.10
2018-04-14T03:09:13.490Z,32.10
2018-04-14T03:11:41.004Z,32.00
2018-04-14T03:14:09.295Z,32.00
2018-04-14T03:16:36.800Z,31.90
2018-04-14T03:19:04.268Z,31.80
2018-04-14T03:21:31.773Z,31.80
2018-04-14T03:23:59.284Z,32.70
2018-04-14T03:26:26.784Z,32.00
2018-04-14T03:28:54.272Z,31.80
2018-04-14T03:31:21.762Z,31.80
2018-04-14T03:33:49.283Z,31.90
2018-04-14T03:36:16.812Z,31.70
2018-04-14T03:38:45.212Z,31.80
2018-04-14T03:41:12.690Z,31.90
2018-04-14T03:43:40.187Z,31.70
2018-04-14T03:46:07.689Z,31.60
2018-04-14T03:48:35.249Z,31.70
2018-04-14T03:51:02.728Z,31.40
2018-04-14T03:53:30.229Z,31.40
2018-04-14T03:55:58.484Z,31.60
2018-04-14T03:58:25.974Z,31.60
2018-04-14T04:00:54.230Z,31.40
2018-04-14T04:03:21.716Z,31.50
2018-04-14T04:05:49.238Z,31.90
2018-04-14T04:08:16.734Z,31.60
2018-04-14T04:10:44.244Z,31.50
2018-04-14T04:13:11.738Z,31.20
2018-04-14T04:15:40.075Z,31.40
2018-04-14T04:18:07.512Z,31.40
2018-04-14T04:20:56.558Z,31.40
2018-04-14T04:23:35.924Z,31.10
2018-04-14T04:26:03.430Z,31.40
2018-04-14T04:28:31.662Z,31.40
2018-04-14T04:30:59.172Z,31.30
2018-04-14T04:33:26.710Z,31.10
2018-04-14T04:35:54.952Z,31.00
2018-04-14T04:38:22.462Z,30.90
2018-04-14T04:40:49.940Z,31.30
2018-04-14T04:43:17.454Z,30.90
2018-04-14T04:45:44.951Z,31.70
2018-04-14T04:48:12.419Z,31.70
2018-04-14T04:50:39.939Z,30.90
2018-04-14T04:53:08.179Z,30.90
2018-04-14T04:55:35.651Z,30.90
2018-04-14T04:58:03.169Z,31.00
2018-04-14T05:00:30.645Z,30.90
2018-04-14T05:02:58.261Z,30.90
2018-04-14T05:05:25.778Z,30.90
2018-04-14T05:07:53.288Z,30.90
2018-04-14T05:10:20.789Z,31.00
2018-04-14T05:12:48.289Z,30.80
2018-04-14T05:15:16.542Z,30.10
2018-04-14T05:17:44.007Z,30.00
2018-04-14T05:20:12.275Z,29.50
2018-04-14T05:22:39.773Z,29.50
2018-04-14T05:25:07.271Z,29.40
2018-04-14T05:27:34.794Z,29.40
2018-04-14T05:30:02.270Z,29.50
2018-04-14T05:32:29.813Z,29.50
2018-04-14T05:34:57.291Z,29.50
2018-04-14T05:37:24.845Z,29.50
2018-04-14T05:39:52.311Z,29.50
2018-04-14T05:42:19.857Z,29.50
2018-04-14T05:44:47.369Z,29.50
2018-04-14T05:47:15.609Z,29.50
2018-04-14T05:49:43.113Z,29.50
2018-04-14T05:52:11.563Z,34.20
2018-04-14T05:54:39.835Z,34.80
2018-04-14T05:57:07.347Z,34.80
2018-04-14T05:59:34.880Z,33.50
2018-04-14T06:02:03.155Z,36.30
2018-04-14T06:04:31.428Z,35.50
2018-04-14T06:06:59.693Z,38.50
2018-04-14T06:09:27.968Z,34.90
2018-04-14T06:11:55.485Z,35.50
2018-04-14T06:14:22.969Z,35.50
2018-04-14T06:16:50.469Z,35.50
2018-04-14T06:19:18.794Z,35.50
2018-04-14T06:21:46.309Z,35.50
2018-04-14T06:24:14.539Z,35.50
2018-04-14T06:26:42.026Z,35.50
2018-04-14T06:29:10.330Z,35.00
2018-04-14T06:31:37.800Z,35.10
2018-04-14T06:34:05.320Z,35.50
2018-04-14T06:36:33.595Z,35.40
2018-04-14T06:39:01.861Z,35.00
2018-04-14T06:41:29.363Z,35.10
2018-04-14T06:43:56.871Z,34.70
2018-04-14T06:46:24.382Z,34.90
2018-04-14T06:48:51.874Z,35.30
2018-04-14T06:51:19.391Z,34.70
2018-04-14T06:53:48.741Z,34.50
2018-04-14T06:56:16.259Z,35.00
2018-04-14T06:58:44.350Z,35.50
2018-04-14T07:01:11.855Z,36.30
2018-04-14T07:03:40.092Z,39.70
2018-04-14T07:06:07.607Z,39.90
2018-04-14T07:08:35.113Z,41.50
2018-04-14T07:11:02.648Z,40.10
2018-04-14T07:13:30.204Z,41.50
2018-04-14T07:15:57.727Z,40.40
2018-04-14T07:18:26.010Z,39.30
2018-04-14T07:20:54.281Z,39.10
2018-04-14T07:23:22.553Z,39.00
2018-04-14T07:25:50.068Z,39.00
2018-04-14T07:28:17.591Z,38.20
2018-04-14T07:30:45.060Z,38.10
2018-04-14T07:33:12.590Z,38.30
2018-04-14T07:35:40.861Z,38.10
2018-04-14T07:38:09.103Z,38.00
2018-04-14T07:40:36.621Z,38.00
2018-04-14T07:43:04.115Z,37.90
2018-04-14T07:45:31.590Z,37.70
2018-04-14T07:47:59.110Z,37.60
2018-04-14T07:50:26.627Z,37.10
2018-04-14T07:52:54.881Z,36.30
2018-04-14T07:55:22.395Z,36.40
2018-04-14T07:57:49.954Z,35.90
2018-04-14T08:00:17.525Z,36.00
2018-04-14T08:02:45.090Z,35.50
2018-04-14T08:05:12.613Z,35.50
2018-04-14T08:07:40.318Z,35.50
2018-04-14T08:10:07.842Z,35.20
2018-04-14T08:12:35.322Z,34.90
2018-04-14T08:15:02.837Z,34.40
2018-04-14T08:17:31.113Z,33.60
2018-04-14T08:19:59.382Z,33.50
2018-04-14T08:22:26.996Z,33.60
2018-04-14T08:24:54.495Z,32.60
2018-04-14T08:27:22.020Z,33.30
2018-04-14T08:29:49.495Z,33.20
2018-04-14T08:32:17.121Z,33.30
2018-04-14T08:34:44.596Z,33.00
2018-04-14T08:37:12.380Z,33.10
2018-04-14T08:39:40.067Z,32.90
2018-04-14T08:42:08.352Z,33.00
2018-04-14T08:44:36.584Z,33.20
2018-04-14T08:47:04.218Z,33.10
2018-04-14T08:49:31.764Z,33.50
2018-04-14T08:51:59.272Z,33.00
2018-04-14T08:54:26.818Z,33.00
2018-04-14T08:56:54.302Z,32.90
2018-04-14T08:59:21.806Z,33.10
2018-04-14T09:01:49.345Z,33.40
2018-04-14T09:04:16.846Z,33.90
2018-04-14T09:06:44.359Z,34.30
2018-04-14T09:09:12.595Z,34.90
2018-04-14T09:11:40.082Z,34.90
2018-04-14T09:14:08.394Z,42.40
2018-04-14T09:16:35.878Z,42.40
2018-04-14T09:19:03.401Z,39.50
2018-04-14T09:21:30.934Z,38.50
2018-04-14T09:23:58.466Z,36.80
2018-04-14T09:26:27.524Z,36.40
2018-04-14T09:28:55.002Z,36.40
2018-04-14T09:31:22.518Z,36.20
2018-04-14T09:33:50.032Z,36.10
2018-04-14T09:36:17.541Z,37.40
2018-04-14T09:38:45.082Z,37.60
2018-04-14T09:41:13.479Z,37.60
2018-04-14T09:43:41.742Z,38.00
2018-04-14T09:46:09.975Z,37.90
2018-04-14T09:48:37.478Z,37.90
2018-04-14T09:51:05.720Z,38.00
2018-04-14T09:53:33.314Z,38.00
2018-04-14T09:56:01.582Z,37.80
2018-04-14T09:58:29.952Z,37.80
2018-04-14T10:01:01.886Z,37.70
2018-04-14T10:03:29.391Z,37.80
2018-04-14T10:05:56.948Z,37.90
2018-04-14T10:08:25.215Z,37.60
2018-04-14T10:10:53.490Z,38.30
2018-04-14T10:13:21.780Z,38.50
2018-04-14T10:15:49.296Z,38.50
2018-04-14T10:18:16.840Z,38.00
2018-04-14T10:20:44.361Z,38.30
2018-04-14T10:23:11.858Z,38.30
2018-04-14T10:25:39.374Z,38.50
2018-04-14T10:28:06.948Z,39.20
2018-04-14T10:30:34.427Z,39.20
2018-04-14T10:33:01.950Z,39.50
2018-04-14T10:35:29.456Z,39.60
2018-04-14T10:37:57.024Z,38.60
2018-04-14T10:40:24.449Z,38.70
2018-04-14T10:42:51.949Z,38.60
2018-04-14T10:45:20.205Z,37.80
2018-04-14T10:47:47.669Z,37.80
2018-04-14T10:50:15.185Z,37.90
2018-04-14T10:52:42.732Z,37.80
2018-04-14T10:55:10.266Z,38.00
2018-04-14T10:57:38.601Z,37.70
2018-04-14T11:00:06.155Z,37.50
2018-04-14T11:02:33.657Z,37.50
2018-04-14T11:05:01.913Z,36.70
2018-04-14T11:07:30.226Z,37.10
2018-04-14T11:09:58.517Z,36.80
2018-04-14T11:12:26.040Z,36.80
2018-04-14T11:14:53.511Z,37.80
2018-04-14T11:17:21.809Z,37.10
2018-04-14T11:19:49.379Z,37.10
2018-04-14T11:22:16.881Z,37.00
2018-04-14T11:24:44.485Z,36.80
2018-04-14T11:27:12.020Z,36.40
2018-04-14T11:29:40.299Z,36.90
2018-04-14T11:32:08.557Z,36.90
2018-04-14T11:34:36.091Z,36.90
2018-04-14T11:37:03.590Z,36.40
2018-04-14T11:39:31.109Z,36.40
2018-04-14T11:41:58.596Z,36.40
2018-04-14T11:44:27.701Z,36.60
2018-04-14T11:46:55.999Z,36.30
2018-04-14T11:49:23.585Z,36.50
2018-04-14T11:51:51.093Z,35.90
2018-04-14T11:54:19.381Z,35.90
2018-04-14T11:56:47.659Z,35.90
2018-04-14T11:59:15.164Z,35.90
2018-04-14T12:01:42.635Z,35.90
2018-04-14T12:04:10.129Z,35.70
2018-04-14T12:06:38.407Z,35.70
2018-04-14T12:09:06.659Z,35.80
2018-04-14T12:11:34.165Z,35.90
2018-04-14T12:14:01.643Z,35.70
2018-04-14T12:16:29.167Z,35.70
2018-04-14T12:18:56.675Z,35.90
2018-04-14T12:21:24.199Z,35.70
2018-04-14T12:23:51.705Z,35.80
2018-04-14T12:26:19.227Z,35.90
2018-04-14T12:28:46.711Z,35.70
2018-04-14T12:31:14.283Z,35.70
2018-04-14T12:33:41.792Z,35.90
2018-04-14T12:36:09.296Z,35.90
2018-04-14T12:38:36.777Z,35.90
2018-04-14T12:41:05.062Z,35.70
2018-04-14T12:43:32.574Z,35.70
2018-04-14T12:46:00.073Z,35.70
2018-04-14T12:48:28.406Z,34.90
2018-04-14T12:50:55.909Z,34.90
2018-04-14T12:53:24.174Z,34.10
2018-04-14T12:55:52.494Z,33.40
2018-04-14T12:58:20.018Z,33.30
2018-04-14T13:00:47.513Z,33.70
2018-04-14T13:03:15.047Z,33.00
2018-04-14T13:05:42.603Z,32.50
2018-04-14T13:08:10.836Z,32.30
2018-04-14T13:10:38.359Z,32.30
2018-04-14T13:13:05.928Z,32.10
2018-04-14T13:15:33.442Z,31.80
2018-04-14T13:18:01.692Z,31.00
2018-04-14T13:20:30.980Z,31.30
2018-04-14T13:22:59.379Z,31.20
2018-04-14T13:25:26.867Z,31.10
2018-04-14T13:27:54.416Z,31.10
2018-04-14T13:30:22.666Z,30.50
2018-04-14T13:32:50.188Z,30.60
2018-04-14T13:35:17.713Z,30.70
2018-04-14T13:37:46.090Z,30.50
2018-04-14T13:40:14.374Z,30.60
2018-04-14T13:42:42.648Z,30.80
2018-04-14T13:45:10.128Z,30.90
2018-04-14T13:47:37.685Z,30.40
2018-04-14T13:50:05.215Z,30.60
2018-04-14T13:52:33.489Z,30.00
2018-04-14T13:55:01.765Z,30.00
2018-04-14T13:57:30.029Z,30.00
2018-04-14T13:59:57.498Z,30.00
2018-04-14T14:02:25.819Z,29.90
2018-04-14T14:04:53.297Z,29.90
2018-04-14T14:07:20.805Z,29.90
2018-04-14T14:09:48.315Z,30.00
2018-04-14T14:12:15.859Z,29.90
2018-04-14T14:14:43.364Z,29.90
2018-04-14T14:17:11.658Z,30.00
2018-04-14T14:19:39.166Z,29.90
2018-04-14T14:22:06.650Z,29.90
2018-04-14T14:24:34.139Z,29.90
2018-04-14T14:27:01.650Z,28.30
2018-04-14T14:29:29.267Z,27.80
2018-04-14T14:31:56.797Z,28.30
2018-04-14T14:34:25.058Z,26.90
2018-04-14T14:36:53.371Z,28.50
2018-04-14T14:39:21.045Z,28.50
2018-04-14T14:41:48.567Z,28.70
2018-04-14T14:44:16.846Z,29.90
2018-04-14T14:46:45.091Z,26.70
2018-04-14T14:49:14.116Z,29.20
2018-04-14T14:51:41.618Z,29.20
2018-04-14T14:54:09.118Z,28.80
2018-04-14T14:56:37.418Z,28.40
2018-04-14T14:59:04.885Z,28.80
2018-04-14T15:01:34.138Z,27.80
2018-04-14T15:04:01.733Z,25.70
2018-04-14T15:06:29.217Z,25.20
2018-04-14T15:08:56.768Z,25.20
2018-04-14T15:11:24.301Z,25.20
2018-04-14T15:13:52.582Z,24.70
2018-04-14T15:16:20.818Z,24.80
2018-04-14T15:18:48.420Z,24.60
2018-04-14T15:21:16.670Z,25.20
2018-04-14T15:23:44.190Z,25.20
2018-04-14T15:26:11.710Z,25.30
2018-04-14T15:28:39.949Z,25.60
2018-04-14T15:31:07.470Z,25.50
2018-04-14T15:33:34.939Z,25.20
2018-04-14T15:36:02.454Z,26.30
2018-04-14T15:38:30.737Z,27.60
2018-04-14T15:40:59.182Z,28.00
2018-04-14T15:43:26.697Z,28.00
2018-04-14T15:45:54.186Z,27.70
2018-04-14T15:48:21.684Z,27.50
2018-04-14T15:50:49.932Z,26.10
2018-04-14T15:53:17.433Z,26.00
2018-04-14T15:55:44.943Z,25.20
2018-04-14T15:58:12.424Z,28.50
2018-04-14T16:00:39.971Z,26.90
2018-04-14T16:03:07.467Z,27.20
2018-04-14T16:05:34.930Z,25.80
2018-04-14T16:08:02.450Z,25.20
2018-04-14T16:10:29.963Z,26.70
2018-04-14T16:12:57.452Z,27.20
2018-04-14T16:15:24.992Z,27.40
2018-04-14T16:17:52.468Z,25.60
2018-04-14T16:20:19.982Z,25.20
2018-04-14T16:22:47.487Z,25.20
2018-04-14T16:25:15.733Z,27.90
2018-04-14T16:27:43.230Z,27.90
2018-04-14T16:30:10.740Z,28.30
2018-04-14T16:32:38.269Z,27.80
2018-04-14T16:35:06.540Z,27.90
2018-04-14T16:37:34.830Z,28.40
2018-04-14T16:40:03.098Z,27.60
2018-04-14T16:42:31.334Z,27.70
2018-04-14T16:44:58.842Z,27.70
2018-04-14T16:47:27.129Z,27.70
2018-04-14T16:49:54.610Z,27.70
2018-04-14T16:52:22.140Z,27.50
2018-04-14T16:54:49.680Z,27.00
2018-04-14T16:57:17.970Z,27.30
2018-04-14T16:59:45.541Z,27.20
2018-04-14T17:02:13.074Z,26.90
2018-04-14T17:04:41.364Z,28.30
2018-04-14T17:07:09.673Z,27.50
2018-04-14T17:09:37.207Z,27.50
2018-04-14T17:12:04.736Z,28.00
2018-04-14T17:14:32.324Z,27.50
2018-04-14T17:17:00.785Z,27.40
2018-04-14T17:19:29.107Z,28.10
2018-04-14T17:21:57.383Z,28.10
2018-04-14T17:24:24.883Z,28.20
2018-04-14T17:26:52.385Z,27.90
2018-04-14T17:29:19.912Z,28.30
2018-04-14T17:31:48.161Z,27.50
2018-04-14T17:34:15.698Z,27.60
2018-04-14T17:36:43.234Z,27.80
2018-04-14T17:39:10.713Z,28.70
2018-04-14T17:41:38.211Z,28.50
2018-04-14T17:44:05.818Z,28.40
2018-04-14T17:46:33.329Z,28.90
2018-04-14T17:49:01.427Z,28.50
2018-04-14T17:51:29.726Z,28.60
2018-04-14T17:53:57.233Z,28.70
2018-04-14T17:56:25.011Z,28.60
2018-04-14T17:58:52.553Z,28.90
2018-04-14T18:01:23.873Z,28.60
2018-04-14T18:03:51.381Z,28.50
2018-04-14T18:06:19.715Z,28.60
2018-04-14T18:08:47.333Z,28.80
2018-04-14T18:11:14.819Z,28.40
2018-04-14T18:13:42.323Z,28.40
2018-04-14T18:16:09.872Z,28.30
2018-04-14T18:18:37.370Z,28.40
2018-04-14T18:21:04.838Z,27.90
2018-04-14T18:23:32.333Z,27.60
2018-04-14T18:25:59.929Z,28.20
2018-04-14T18:28:28.249Z,28.50
2018-04-14T18:30:55.768Z,28.60
2018-04-14T18:33:24.000Z,29.70
2018-04-14T18:35:51.510Z,29.80
2018-04-14T18:38:19.039Z,29.40
2018-04-14T18:40:48.324Z,29.10
2018-04-14T18:43:15.817Z,28.90
2018-04-14T18:45:44.107Z,28.10
2018-04-14T18:48:11.671Z,28.10
2018-04-14T18:50:40.144Z,28.40
2018-04-14T18:53:07.682Z,29.50
2018-04-14T18:55:35.951Z,27.70
2018-04-14T18:58:03.462Z,27.90
2018-04-14T19:00:30.972Z,29.10
2018-04-14T19:02:58.546Z,29.90
2018-04-14T19:05:26.850Z,29.40
2018-04-14T19:07:54.342Z,29.40
2018-04-14T19:10:21.875Z,29.10
2018-04-14T19:12:50.114Z,29.20
2018-04-14T19:15:18.423Z,28.70
2018-04-14T19:17:45.925Z,28.80
2018-04-14T19:20:13.413Z,29.40
2018-04-14T19:22:41.025Z,29.90
2018-04-14T19:25:08.540Z,29.20
2018-04-14T19:27:36.038Z,29.90
2018-04-14T19:30:03.546Z,29.90
2018-04-14T19:32:31.875Z,29.50
2018-04-14T19:34:59.400Z,29.70
2018-04-14T19:37:26.880Z,28.90
2018-04-14T19:39:54.407Z,28.90
2018-04-14T19:42:21.915Z,29.60
2018-04-14T19:44:49.463Z,29.00
2018-04-14T19:47:18.792Z,28.90
2018-04-14T19:49:46.280Z,28.90
2018-04-14T19:52:13.992Z,29.00
2018-04-14T19:54:41.496Z,28.60
2018-04-14T19:57:09.834Z,27.80
2018-04-14T19:59:37.341Z,27.80
2018-04-14T20:02:05.584Z,27.90
2018-04-14T20:04:33.102Z,28.00
2018-04-14T20:07:00.650Z,27.60
2018-04-14T20:09:28.121Z,27.50
2018-04-14T20:11:55.654Z,27.40
2018-04-14T20:14:23.164Z,27.30
2018-04-14T20:16:51.446Z,27.70
2018-04-14T20:19:18.936Z,27.70
2018-04-14T20:21:47.210Z,26.80
2018-04-14T20:24:15.464Z,26.80
2018-04-14T20:26:42.934Z,26.80
2018-04-14T20:29:11.214Z,26.60
2018-04-14T20:31:39.525Z,26.40
2018-04-14T20:34:06.999Z,26.40
2018-04-14T20:36:34.514Z,25.70
2018-04-14T20:39:02.752Z,26.20
2018-04-14T20:41:30.274Z,26.20
2018-04-14T20:43:57.753Z,25.90
2018-04-14T20:46:25.304Z,26.00
2018-04-14T20:48:52.798Z,25.20
2018-04-14T20:51:20.304Z,26.00
2018-04-14T20:53:47.798Z,26.00
2018-04-14T20:56:15.378Z,27.20
2018-04-14T20:58:42.898Z,26.10
2018-04-14T21:01:10.364Z,26.10
2018-04-14T21:03:37.857Z,25.80
2018-04-14T21:06:05.378Z,26.00
2018-04-14T21:08:32.852Z,26.00
2018-04-14T21:11:00.340Z,26.00
2018-04-14T21:13:29.112Z,26.20
2018-04-14T21:15:57.345Z,26.20
2018-04-14T21:18:24.870Z,26.20
2018-04-14T21:20:53.154Z,26.40
2018-04-14T21:23:21.293Z,27.00
2018-04-14T21:25:48.819Z,26.70
2018-04-14T21:28:16.312Z,26.40
2018-04-14T21:30:43.781Z,26.30
2018-04-14T21:33:12.045Z,26.40
2018-04-14T21:35:39.570Z,26.40
2018-04-14T21:38:07.077Z,26.30
2018-04-14T21:40:35.368Z,26.50
2018-04-14T21:43:02.856Z,26.70
2018-04-14T21:45:30.368Z,26.30
2018-04-14T21:47:58.642Z,26.40
2018-04-14T21:50:26.929Z,26.40
2018-04-14T21:52:55.207Z,26.40
2018-04-14T21:55:23.510Z,26.40
2018-04-14T21:57:51.006Z,26.30
2018-04-14T22:00:18.519Z,26.70
2018-04-14T22:02:46.075Z,27.00
2018-04-14T22:05:13.658Z,26.80
2018-04-14T22:07:41.212Z,26.90
2018-04-14T22:10:08.730Z,27.40
2018-04-14T22:12:37.089Z,27.30
2018-04-14T22:15:04.551Z,27.30
2018-04-14T22:17:32.085Z,27.30
2018-04-14T22:19:59.561Z,27.20
2018-04-14T22:22:27.063Z,27.40
2018-04-14T22:24:54.733Z,27.30
2018-04-14T22:27:22.273Z,27.40
2018-04-14T22:29:50.517Z,27.70
2018-04-14T22:32:18.213Z,27.70
2018-04-14T22:34:45.727Z,27.40
2018-04-14T22:37:13.500Z,27.60
2018-04-14T22:39:41.111Z,27.50
2018-04-14T22:42:08.622Z,27.80
2018-04-14T22:44:36.145Z,27.70
2018-04-14T22:47:03.663Z,27.60
2018-04-14T22:49:32.031Z,27.50
2018-04-14T22:51:59.513Z,27.70
2018-04-14T22:54:27.029Z,28.30
2018-04-14T22:56:54.595Z,28.10
2018-04-14T22:59:22.109Z,27.70
2018-04-14T23:01:49.653Z,27.70
2018-04-14T23:04:17.277Z,28.40
2018-04-14T23:06:44.781Z,27.80
2018-04-14T23:09:15.411Z,27.80
2018-04-14T23:11:42.939Z,27.90
2018-04-14T23:14:10.491Z,28.10
2018-04-14T23:16:38.013Z,27.70
2018-04-14T23:19:06.514Z,28.10
2018-04-14T23:21:33.999Z,27.80
2018-04-14T23:24:02.264Z,28.00
2018-04-14T23:26:30.522Z,28.30
2018-04-14T23:28:58.032Z,28.30
2018-04-14T23:31:25.583Z,28.00
2018-04-14T23:33:53.152Z,28.40
2018-04-14T23:36:20.949Z,28.10
2018-04-14T23:38:48.535Z,28.30
2018-04-14T23:41:16.091Z,28.20
2018-04-14T23:43:44.410Z,28.60
2018-04-14T23:46:12.003Z,29.40
2018-04-14T23:48:40.340Z,28.50
2018-04-14T23:51:07.892Z,28.60
2018-04-14T23:53:35.388Z,29.00
2018-04-14T23:56:02.935Z,29.60
2018-04-14T23:58:30.415Z,29.00
